createdAt,value
2018-06-25T00:02:40.779Z,7.87
2018-06-25T00:07:33.743Z,9.30
2018-06-25T00:12:26.741Z,8.70
2018-06-25T00:17:19.783Z,10.63
2018-06-25T00:22:12.751Z,8.77
2018-06-25T00:27:05.773Z,10.40
2018-06-25T00:31:58.772Z,8.60
2018-06-25T00:36:51.737Z,8.60
2018-06-25T00:41:44.832Z,13.07
2018-06-25T00:46:37.815Z,9.70
2018-06-25T00:51:30.869Z,11.43
2018-06-25T00:56:23.906Z,12.10
2018-06-25T01:01:16.867Z,10.93
2018-06-25T01:06:09.950Z,11.60
2018-06-25T01:11:03.019Z,11.80
2018-06-25T01:15:55.979Z,15.07
2018-06-25T01:20:49.052Z,15.33
2018-06-25T01:25:42.074Z,13.23
2018-06-25T01:30:35.026Z,12.37
2018-06-25T01:35:28.055Z,13.20
2018-06-25T01:40:21.019Z,14.00
2018-06-25T01:45:13.966Z,14.00
2018-06-25T01:50:06.985Z,15.60
2018-06-25T01:54:59.990Z,16.87
2018-06-25T01:59:52.909Z,16.40
2018-06-25T02:04:45.970Z,14.90
2018-06-25T02:09:39.007Z,14.83
2018-06-25T02:14:32.040Z,15.20
2018-06-25T02:19:25.104Z,13.93
2018-06-25T02:24:18.130Z,16.83
2018-06-25T02:29:11.171Z,15.50
2018-06-25T02:34:04.927Z,18.57
2018-06-25T02:38:57.964Z,14.00
2018-06-25T02:43:50.891Z,14.27
2018-06-25T02:48:43.836Z,21.63
2018-06-25T02:53:36.831Z,15.93
2018-06-25T02:58:29.811Z,13.27
2018-06-25T03:03:22.716Z,14.43
2018-06-25T03:08:15.706Z,17.20
2018-06-25T03:13:08.784Z,13.53
2018-06-25T03:18:01.929Z,15.43
2018-06-25T03:22:54.954Z,12.33
2018-06-25T03:27:48.100Z,17.17
2018-06-25T03:32:41.100Z,13.83
2018-06-25T03:37:34.119Z,15.57
2018-06-25T03:42:27.394Z,14.93
2018-06-25T03:47:20.527Z,22.60
2018-06-25T03:52:13.451Z,17.40
2018-06-25T03:57:06.500Z,21.27
2018-06-25T04:01:59.638Z,19.10
2018-06-25T04:06:52.639Z,21.00
2018-06-25T04:11:45.679Z,17.17
2018-06-25T04:16:38.781Z,17.17
2018-06-25T04:21:32.848Z,15.30
2018-06-25T04:26:25.824Z,21.50
2018-06-25T04:31:18.895Z,15.47
2018-06-25T04:36:11.904Z,16.10
2018-06-25T04:41:05.044Z,22.97
2018-06-25T04:45:58.076Z,19.27
2018-06-25T04:50:51.213Z,16.60
2018-06-25T04:55:44.208Z,19.03
2018-06-25T05:00:37.358Z,17.07
2018-06-25T05:05:30.385Z,17.17
2018-06-25T05:10:23.378Z,17.60
2018-06-25T05:15:16.418Z,14.73
2018-06-25T05:20:09.524Z,14.27
2018-06-25T05:25:02.569Z,16.77
2018-06-25T05:29:55.754Z,15.80
2018-06-25T05:34:48.870Z,17.77
2018-06-25T05:39:41.995Z,16.07
2018-06-25T05:44:35.005Z,17.00
2018-06-25T05:49:27.992Z,21.10
2018-06-25T05:54:21.155Z,17.93
2018-06-25T05:59:14.110Z,15.07
2018-06-25T06:04:07.170Z,14.90
2018-06-25T06:09:00.362Z,14.90
2018-06-25T06:13:53.379Z,17.60
2018-06-25T06:18:46.589Z,22.93
2018-06-25T06:23:39.642Z,18.73
2018-06-25T06:28:32.643Z,17.80
2018-06-25T06:33:25.701Z,19.87
2018-06-25T06:38:18.708Z,19.10
2018-06-25T06:43:11.683Z,19.17
2018-06-25T06:48:04.937Z,20.03
2018-06-25T06:52:57.899Z,21.57
2018-06-25T06:57:50.997Z,22.20
2018-06-25T07:02:43.924Z,21.10
2018-06-25T07:07:36.893Z,23.40
2018-06-25T07:12:29.928Z,26.30
2018-06-25T07:17:23.111Z,22.67
2018-06-25T07:22:16.153Z,22.30
2018-06-25T07:27:09.321Z,24.60
2018-06-25T07:32:02.351Z,22.40
2018-06-25T07:36:55.391Z,29.00
2018-06-25T07:41:48.574Z,25.93
2018-06-25T07:46:41.757Z,22.43
2018-06-25T07:51:34.913Z,20.83
2018-06-25T07:56:28.032Z,23.87
2018-06-25T08:01:21.257Z,29.07
2018-06-25T08:06:14.359Z,26.40
2018-06-25T08:11:07.438Z,18.87
2018-06-25T08:16:00.603Z,16.17
2018-06-25T08:20:53.780Z,16.43
2018-06-25T08:25:46.754Z,15.93
2018-06-25T08:30:39.737Z,17.27
2018-06-25T08:35:32.760Z,19.37
2018-06-25T08:40:25.899Z,20.47
2018-06-25T08:45:18.956Z,19.27
2018-06-25T08:50:12.062Z,15.60
2018-06-25T08:55:05.277Z,14.77
2018-06-25T08:59:58.383Z,11.97
2018-06-25T09:04:51.439Z,13.47
2018-06-25T09:09:44.575Z,12.20
2018-06-25T09:14:37.711Z,10.27
2018-06-25T09:19:30.728Z,11.90
2018-06-25T09:24:23.816Z,11.37
2018-06-25T09:29:16.744Z,12.33
2018-06-25T09:34:15.384Z,12.27
2018-06-25T09:39:10.389Z,13.67
2018-06-25T09:44:03.570Z,13.07
2018-06-25T09:48:56.672Z,13.27
2018-06-25T09:53:49.566Z,10.80
2018-06-25T09:58:42.479Z,11.23
2018-06-25T10:03:35.505Z,12.30
2018-06-25T10:08:28.406Z,13.67
2018-06-25T10:13:21.520Z,12.90
2018-06-25T10:18:14.530Z,10.63
2018-06-25T10:23:07.565Z,12.80
2018-06-25T10:28:00.589Z,9.00
2018-06-25T10:32:53.583Z,10.60
2018-06-25T10:37:46.625Z,13.03
2018-06-25T10:42:39.670Z,13.33
2018-06-25T10:47:32.653Z,12.83
2018-06-25T10:52:25.808Z,9.17
2018-06-25T10:57:18.897Z,14.03
2018-06-25T11:02:11.989Z,8.83
2018-06-25T11:07:05.032Z,11.57
2018-06-25T11:11:58.067Z,16.20
2018-06-25T11:16:51.433Z,12.07
2018-06-25T11:21:44.460Z,8.80
2018-06-25T11:26:37.764Z,10.70
2018-06-25T11:31:30.801Z,14.67
2018-06-25T11:36:23.742Z,12.17
2018-06-25T11:41:16.798Z,8.93
2018-06-25T11:46:09.801Z,11.00
2018-06-25T11:51:02.829Z,13.03
2018-06-25T11:55:55.864Z,8.97
2018-06-25T12:00:48.916Z,9.70
2018-06-25T12:05:41.960Z,9.27
2018-06-25T12:10:35.073Z,9.80
2018-06-25T12:15:28.095Z,9.13
2018-06-25T12:20:21.183Z,11.83
2018-06-25T12:25:14.460Z,12.10
2018-06-25T12:30:07.704Z,8.57
2018-06-25T12:35:01.559Z,10.07
2018-06-25T12:39:54.811Z,8.63
2018-06-25T12:44:47.804Z,12.37
2018-06-25T12:49:40.953Z,11.23
2018-06-25T12:54:34.604Z,7.30
2018-06-25T12:59:27.706Z,14.17
2018-06-25T13:04:21.168Z,6.03
2018-06-25T13:09:14.346Z,10.23
2018-06-25T13:14:08.125Z,6.13
2018-06-25T13:19:01.391Z,7.47
2018-06-25T13:23:54.394Z,6.90
2018-06-25T13:28:47.399Z,10.30
2018-06-25T13:33:40.577Z,5.83
2018-06-25T13:38:33.629Z,7.27
2018-06-25T13:43:26.725Z,7.27
2018-06-25T13:48:19.883Z,7.10
2018-06-25T13:53:13.041Z,10.20
2018-06-25T13:58:06.260Z,7.47
2018-06-25T14:02:59.313Z,7.33
2018-06-25T14:07:52.639Z,6.40
2018-06-25T14:12:45.637Z,8.87
2018-06-25T14:17:38.803Z,8.23
2018-06-25T14:22:31.838Z,11.17
2018-06-25T14:27:24.804Z,6.50
2018-06-25T14:32:23.441Z,9.60
2018-06-25T14:37:16.411Z,6.43
2018-06-25T14:42:09.401Z,7.20
2018-06-25T14:47:02.383Z,10.13
2018-06-25T14:51:55.350Z,8.40
2018-06-25T14:56:48.347Z,10.53
2018-06-25T15:01:41.376Z,7.60
2018-06-25T15:06:34.401Z,13.37
2018-06-25T15:11:27.444Z,10.03
2018-06-25T15:16:20.544Z,6.63
2018-06-25T15:21:13.604Z,9.67
2018-06-25T15:26:06.757Z,10.47
2018-06-25T15:30:59.903Z,6.63
2018-06-25T15:35:53.022Z,23.83
2018-06-25T15:40:46.094Z,10.07
2018-06-25T15:45:39.137Z,12.73
2018-06-25T15:50:32.157Z,12.43
2018-06-25T15:55:25.347Z,14.67
2018-06-25T16:00:18.349Z,10.73
2018-06-25T16:05:11.404Z,10.20
2018-06-25T16:10:04.632Z,12.23
2018-06-25T16:14:57.589Z,7.13
2018-06-25T16:19:50.737Z,9.03
2018-06-25T16:24:43.734Z,7.60
2018-06-25T16:29:36.871Z,5.67
2018-06-25T16:34:30.077Z,9.87
2018-06-25T16:39:23.173Z,7.60
2018-06-25T16:44:16.143Z,6.30
2018-06-25T16:49:09.172Z,4.97
2018-06-25T16:54:02.283Z,8.10
2018-06-25T16:58:55.284Z,9.43
2018-06-25T17:03:48.508Z,10.13
2018-06-25T17:08:41.596Z,9.13
2018-06-25T17:13:34.669Z,5.23
2018-06-25T17:18:27.743Z,11.23
2018-06-25T17:23:20.862Z,10.47
2018-06-25T17:28:13.936Z,9.70
2018-06-25T17:33:06.930Z,7.03
2018-06-25T17:38:00.130Z,8.57
2018-06-25T17:42:53.260Z,9.90
2018-06-25T17:47:46.306Z,10.57
2018-06-25T17:52:39.483Z,11.07
2018-06-25T17:57:32.870Z,13.23
2018-06-25T18:02:26.013Z,8.27
2018-06-25T18:07:19.074Z,7.17
2018-06-25T18:12:12.182Z,13.07
2018-06-25T18:17:05.256Z,8.47
2018-06-25T18:21:58.664Z,10.27
2018-06-25T18:26:51.790Z,14.20
2018-06-25T18:31:45.110Z,12.33
2018-06-25T18:36:38.111Z,16.90
2018-06-25T18:41:31.063Z,13.93
2018-06-25T18:46:24.431Z,17.27
2018-06-25T18:51:17.537Z,18.23
2018-06-25T18:56:10.851Z,15.27
2018-06-25T19:01:03.801Z,12.97
2018-06-25T19:05:56.990Z,12.77
2018-06-25T19:10:50.929Z,12.33
2018-06-25T19:15:44.169Z,14.93
2018-06-25T19:20:37.485Z,12.93
2018-06-25T19:25:30.951Z,12.73
2018-06-25T19:30:24.095Z,10.97
2018-06-25T19:35:17.270Z,15.47
2018-06-25T19:40:10.388Z,15.80
2018-06-25T19:45:03.949Z,16.23
2018-06-25T19:49:57.115Z,17.57
2018-06-25T19:54:50.243Z,16.73
2018-06-25T19:59:43.485Z,14.43
2018-06-25T20:04:36.473Z,15.87
2018-06-25T20:09:29.520Z,13.97
2018-06-25T20:14:22.549Z,24.20
2018-06-25T20:19:15.875Z,17.73
2018-06-25T20:24:09.167Z,17.37
2018-06-25T20:29:02.233Z,16.43
2018-06-25T20:33:55.432Z,16.03
2018-06-25T20:38:48.410Z,25.33
2018-06-25T20:43:41.431Z,18.20
2018-06-25T20:48:34.584Z,18.40
2018-06-25T20:53:27.580Z,17.20
2018-06-25T20:58:20.590Z,19.40
2018-06-25T21:03:13.568Z,16.70
2018-06-25T21:08:06.625Z,19.37
2018-06-25T21:12:59.727Z,14.60
2018-06-25T21:17:52.802Z,22.23
2018-06-25T21:22:45.877Z,21.00
2018-06-25T21:27:38.865Z,20.03
2018-06-25T21:32:32.021Z,18.00
2018-06-25T21:37:25.057Z,22.43
2018-06-25T21:42:18.026Z,23.90
2018-06-25T21:47:11.296Z,26.63
2018-06-25T21:52:04.381Z,22.23
2018-06-25T21:56:57.358Z,30.97
2018-06-25T22:01:52.485Z,25.13
2018-06-25T22:06:45.409Z,20.27
2018-06-25T22:11:38.421Z,21.30
2018-06-25T22:16:31.526Z,21.53
2018-06-25T22:21:25.324Z,18.17
2018-06-25T22:26:18.358Z,27.93
2018-06-25T22:31:11.393Z,19.77
2018-06-25T22:36:04.524Z,23.13
2018-06-25T22:40:57.604Z,22.07
2018-06-25T22:45:51.022Z,23.30
2018-06-25T22:50:44.021Z,21.47
2018-06-25T22:55:37.042Z,22.23
2018-06-25T23:00:30.438Z,22.93
2018-06-25T23:05:23.552Z,22.63
2018-06-25T23:10:16.554Z,19.67
2018-06-25T23:15:09.627Z,28.47
2018-06-25T23:20:02.749Z,24.83
2018-06-25T23:24:55.831Z,22.00
2018-06-25T23:29:48.856Z,23.73
2018-06-25T23:34:41.872Z,18.97
2018-06-25T23:39:34.911Z,25.50
2018-06-25T23:44:27.876Z,19.10
2018-06-25T23:49:20.982Z,21.83
2018-06-25T23:54:13.947Z,21.77
2018-06-25T23:59:07.022Z,20.27
